createdAt,value
2022-08-17T00:01:31.396Z,64.81
2022-08-17T00:04:19.512Z,64.17
2022-08-17T00:06:46.334Z,64.62
2022-08-17T00:09:18.766Z,64.45
2022-08-17T00:12:34.763Z,64.62
2022-08-17T00:14:35.209Z,65.88
2022-08-17T00:17:03.934Z,65.51
2022-08-17T00:19:32.578Z,65.36
2022-08-17T00:22:34.559Z,66.54
2022-08-17T00:24:47.207Z,64.98
2022-08-17T00:27:13.681Z,65.53
2022-08-17T00:29:40.174Z,66.23
2022-08-17T00:33:14.414Z,66.95
2022-08-17T00:34:53.191Z,66.86
2022-08-17T00:37:19.660Z,67.79
2022-08-17T00:39:46.191Z,67.20
2022-08-17T00:42:14.081Z,67.20
2022-08-17T00:44:40.520Z,67.79
2022-08-17T00:47:07.084Z,67.22
2022-08-17T00:49:33.546Z,67.34
2022-08-17T00:52:05.284Z,68.12
2022-08-17T00:54:42.061Z,66.99
2022-08-17T00:57:11.178Z,67.63
2022-08-17T00:59:44.104Z,68.15
2022-08-17T01:02:12.614Z,67.77
2022-08-17T01:04:39.253Z,67.40
2022-08-17T01:07:06.636Z,68.91
2022-08-17T01:09:33.495Z,68.26
2022-08-17T01:12:00.181Z,67.44
2022-08-17T01:14:27.089Z,67.63
2022-08-17T01:16:55.113Z,68.07
2022-08-17T01:19:23.764Z,67.99
2022-08-17T01:21:52.635Z,69.06
2022-08-17T01:24:19.096Z,68.08
2022-08-17T01:26:46.071Z,68.22
2022-08-17T01:29:13.221Z,68.64
2022-08-17T01:31:42.481Z,69.43
2022-08-17T01:34:10.692Z,69.69
2022-08-17T01:36:38.968Z,70.20
2022-08-17T01:39:06.850Z,69.06
2022-08-17T01:41:34.023Z,69.58
2022-08-17T01:44:02.535Z,68.73
2022-08-17T01:46:31.015Z,69.36
2022-08-17T01:48:58.100Z,70.51
2022-08-17T01:51:26.028Z,70.20
2022-08-17T01:53:54.350Z,69.53
2022-08-17T01:56:22.911Z,69.59
2022-08-17T01:58:49.476Z,69.15
2022-08-17T02:01:17.195Z,70.68
2022-08-17T02:03:53.479Z,70.52
2022-08-17T02:06:27.449Z,71.79
2022-08-17T02:09:01.712Z,71.28
2022-08-17T02:11:29.788Z,70.34
2022-08-17T02:14:02.702Z,71.10
2022-08-17T02:16:37.726Z,70.81
2022-08-17T02:19:10.003Z,70.53
2022-08-17T02:21:37.444Z,71.72
2022-08-17T02:24:05.182Z,72.61
2022-08-17T02:26:31.706Z,71.73
2022-08-17T02:28:58.186Z,70.84
2022-08-17T02:31:24.717Z,71.04
2022-08-17T02:34:00.492Z,71.11
2022-08-17T02:36:31.932Z,71.33
2022-08-17T02:38:59.597Z,72.36
2022-08-17T02:41:26.023Z,72.13
2022-08-17T02:43:53.619Z,71.36
2022-08-17T02:46:20.101Z,71.62
2022-08-17T02:48:46.618Z,72.46
2022-08-17T02:51:13.066Z,71.60
2022-08-17T02:53:39.510Z,72.84
2022-08-17T02:56:06.234Z,73.05
2022-08-17T02:58:35.156Z,72.48
2022-08-17T03:01:03.421Z,72.50
2022-08-17T03:03:30.066Z,71.79
2022-08-17T03:05:56.456Z,72.14
2022-08-17T03:08:23.454Z,71.76
2022-08-17T03:10:50.549Z,72.11
2022-08-17T03:13:17.502Z,72.26
2022-08-17T03:15:45.324Z,72.56
2022-08-17T03:18:18.906Z,73.31
2022-08-17T03:20:51.162Z,74.16
2022-08-17T03:23:17.674Z,74.69
2022-08-17T03:25:45.989Z,74.91
2022-08-17T03:28:12.655Z,73.82
2022-08-17T03:30:39.982Z,74.90
2022-08-17T03:33:07.619Z,74.60
2022-08-17T03:35:36.401Z,73.44
2022-08-17T03:38:03.970Z,73.51
2022-08-17T03:40:41.822Z,73.96
2022-08-17T03:43:17.985Z,74.71
2022-08-17T03:46:03.224Z,73.99
2022-08-17T03:48:48.508Z,74.32
2022-08-17T03:51:38.367Z,75.33
2022-08-17T03:54:23.724Z,75.71
2022-08-17T03:56:56.199Z,74.24
2022-08-17T03:59:22.848Z,72.98
2022-08-17T04:01:55.003Z,73.73
2022-08-17T04:04:21.549Z,74.63
2022-08-17T04:06:54.254Z,75.03
2022-08-17T04:09:20.777Z,75.19
2022-08-17T04:11:47.202Z,74.18
2022-08-17T04:14:13.663Z,74.46
2022-08-17T04:16:40.254Z,75.15
2022-08-17T04:19:06.740Z,77.35
2022-08-17T04:21:34.397Z,76.41
2022-08-17T04:24:01.221Z,75.63
2022-08-17T04:26:53.946Z,75.77
2022-08-17T04:29:14.898Z,76.56
2022-08-17T04:31:41.458Z,75.89
2022-08-17T04:34:07.952Z,75.77
2022-08-17T04:36:34.467Z,75.84
2022-08-17T04:39:01.006Z,75.33
2022-08-17T04:41:46.089Z,75.87
2022-08-17T04:44:12.572Z,76.72
2022-08-17T04:46:53.696Z,77.40
2022-08-17T04:49:20.814Z,76.79
2022-08-17T04:51:55.826Z,77.51
2022-08-17T04:54:23.868Z,78.34
2022-08-17T04:56:50.374Z,77.16
2022-08-17T04:59:20.514Z,77.13
2022-08-17T05:01:48.300Z,78.05
2022-08-17T05:04:33.073Z,78.30
2022-08-17T05:07:01.831Z,78.05
2022-08-17T05:09:29.068Z,78.46
2022-08-17T05:11:56.361Z,78.18
2022-08-17T05:14:32.447Z,78.64
2022-08-17T05:17:00.416Z,78.75
2022-08-17T05:19:27.709Z,78.21
2022-08-17T05:21:54.215Z,78.63
2022-08-17T05:24:39.113Z,78.78
2022-08-17T05:27:07.490Z,78.96
2022-08-17T05:29:35.180Z,79.28
2022-08-17T05:32:38.983Z,79.75
2022-08-17T05:35:01.710Z,79.98
2022-08-17T05:37:28.147Z,78.51
2022-08-17T05:39:54.747Z,79.53
2022-08-17T05:42:21.489Z,78.78
2022-08-17T05:44:47.944Z,79.64
2022-08-17T05:47:14.424Z,77.61
2022-08-17T05:49:40.874Z,76.07
2022-08-17T05:52:27.602Z,76.21
2022-08-17T05:54:54.018Z,75.95
2022-08-17T05:57:24.906Z,77.29
2022-08-17T06:00:12.082Z,78.35
2022-08-17T06:02:59.068Z,78.70
2022-08-17T06:05:44.202Z,78.66
2022-08-17T06:08:23.380Z,76.84
2022-08-17T06:10:57.489Z,75.60
2022-08-17T06:13:50.705Z,76.06
2022-08-17T06:16:28.144Z,75.15
2022-08-17T06:19:04.336Z,74.56
2022-08-17T06:21:33.805Z,75.30
2022-08-17T06:24:06.220Z,75.40
2022-08-17T06:26:39.717Z,75.07
2022-08-17T06:29:37.130Z,74.32
2022-08-17T06:32:05.426Z,74.45
2022-08-17T06:34:32.968Z,73.55
2022-08-17T06:37:09.141Z,73.46
2022-08-17T06:39:36.020Z,72.56
2022-08-17T06:42:54.619Z,71.64
2022-08-17T06:45:08.416Z,69.20
2022-08-17T06:47:34.826Z,67.82
2022-08-17T06:50:14.576Z,68.47
2022-08-17T06:52:49.966Z,66.85
2022-08-17T06:55:20.329Z,65.59
2022-08-17T06:57:50.129Z,65.49
2022-08-17T07:00:18.441Z,64.29
2022-08-17T07:03:04.477Z,62.16
2022-08-17T07:05:37.083Z,60.76
2022-08-17T07:08:11.809Z,60.32
2022-08-17T07:10:43.085Z,59.31
2022-08-17T07:13:29.760Z,57.88
2022-08-17T07:16:04.957Z,58.82
2022-08-17T07:18:33.255Z,57.90
2022-08-17T07:21:05.226Z,56.76
2022-08-17T07:23:38.256Z,54.75
2022-08-17T07:26:05.593Z,54.31
2022-08-17T07:28:33.031Z,54.33
2022-08-17T07:31:00.021Z,53.92
2022-08-17T07:33:31.353Z,53.14
2022-08-17T07:35:58.176Z,51.74
2022-08-17T07:38:28.806Z,52.17
2022-08-17T07:41:00.204Z,51.33
2022-08-17T07:43:35.378Z,51.66
2022-08-17T07:46:29.789Z,50.59
2022-08-17T07:49:16.202Z,50.58
2022-08-17T07:51:42.584Z,50.43
2022-08-17T07:54:15.311Z,50.14
2022-08-17T07:56:47.951Z,50.12
2022-08-17T07:59:14.496Z,47.97
2022-08-17T08:01:42.539Z,49.31
2022-08-17T08:04:43.159Z,47.56
2022-08-17T08:07:14.631Z,46.82
2022-08-17T08:09:42.718Z,47.43
2022-08-17T08:12:21.507Z,46.55
2022-08-17T08:14:54.566Z,46.24
2022-08-17T08:17:23.949Z,45.22
2022-08-17T08:19:50.417Z,45.63
2022-08-17T08:22:23.850Z,44.44
2022-08-17T08:24:56.213Z,44.40
2022-08-17T08:27:29.851Z,44.70
2022-08-17T08:30:05.285Z,44.39
2022-08-17T08:32:37.435Z,43.39
2022-08-17T08:35:13.771Z,43.98
2022-08-17T08:37:47.448Z,42.87
2022-08-17T08:40:16.746Z,43.85
2022-08-17T08:43:06.922Z,43.14
2022-08-17T08:45:41.280Z,42.67
2022-08-17T08:48:46.220Z,42.59
2022-08-17T08:51:18.705Z,42.68
2022-08-17T08:53:54.271Z,43.23
2022-08-17T08:56:49.812Z,43.14
2022-08-17T08:59:30.709Z,43.62
2022-08-17T09:01:57.222Z,43.50
2022-08-17T09:04:30.067Z,42.67
2022-08-17T09:06:57.976Z,43.29
2022-08-17T09:09:34.814Z,43.20
2022-08-17T09:12:21.314Z,42.96
2022-08-17T09:14:54.510Z,42.70
2022-08-17T09:17:25.449Z,41.51
2022-08-17T09:19:51.884Z,41.73
2022-08-17T09:22:30.505Z,41.75
2022-08-17T09:25:03.264Z,41.73
2022-08-17T09:27:35.761Z,41.69
2022-08-17T09:30:06.810Z,41.61
2022-08-17T09:32:44.169Z,41.04
2022-08-17T09:35:16.740Z,40.62
2022-08-17T09:37:53.201Z,39.74
2022-08-17T09:40:19.752Z,40.34
2022-08-17T09:42:49.482Z,40.41
2022-08-17T09:45:23.809Z,39.24
2022-08-17T09:47:55.949Z,40.55
2022-08-17T09:51:03.508Z,39.84
2022-08-17T09:53:17.105Z,39.03
2022-08-17T09:55:43.526Z,39.13
2022-08-17T09:58:15.402Z,38.71
2022-08-17T10:00:46.040Z,37.80
2022-08-17T10:03:30.016Z,37.90
2022-08-17T10:05:59.510Z,37.05
2022-08-17T10:08:45.660Z,36.90
2022-08-17T10:11:18.984Z,36.16
2022-08-17T10:13:52.932Z,36.33
2022-08-17T10:16:23.224Z,36.17
2022-08-17T10:18:49.640Z,36.12
2022-08-17T10:21:36.329Z,36.17
2022-08-17T10:24:24.658Z,35.49
2022-08-17T10:26:56.954Z,35.86
2022-08-17T10:29:49.696Z,35.87
2022-08-17T10:32:32.275Z,35.37
2022-08-17T10:35:01.710Z,35.87
2022-08-17T10:37:28.471Z,34.55
2022-08-17T10:40:04.481Z,34.01
2022-08-17T10:42:33.210Z,34.53
2022-08-17T10:45:20.043Z,33.39
2022-08-17T10:48:04.771Z,32.80
2022-08-17T10:50:47.475Z,33.50
2022-08-17T10:53:32.032Z,33.06
2022-08-17T10:56:13.784Z,32.71
2022-08-17T10:58:54.212Z,31.81
2022-08-17T11:01:43.783Z,31.89
2022-08-17T11:04:24.339Z,32.25
2022-08-17T11:07:02.456Z,31.60
2022-08-17T11:09:37.726Z,31.60
2022-08-17T11:12:16.316Z,32.00
2022-08-17T11:14:52.274Z,30.62
2022-08-17T11:17:31.139Z,30.94
2022-08-17T11:19:58.109Z,30.89
2022-08-17T11:22:43.428Z,31.97
2022-08-17T11:25:15.092Z,30.29
2022-08-17T11:27:42.691Z,28.97
2022-08-17T11:30:14.113Z,30.39
2022-08-17T11:32:47.652Z,30.81
2022-08-17T11:35:20.382Z,30.62
2022-08-17T11:37:46.785Z,30.01
2022-08-17T11:40:27.807Z,29.83
2022-08-17T11:42:57.249Z,29.74
2022-08-17T11:45:39.183Z,29.23
2022-08-17T11:48:36.534Z,29.61
2022-08-17T11:51:35.380Z,29.99
2022-08-17T11:54:34.468Z,29.62
2022-08-17T11:57:21.497Z,29.51
2022-08-17T11:59:47.924Z,29.62
2022-08-17T12:02:32.914Z,30.08
2022-08-17T12:05:14.607Z,29.67
2022-08-17T12:07:46.630Z,29.40
2022-08-17T12:10:16.097Z,29.42
2022-08-17T12:12:44.186Z,29.21
2022-08-17T12:15:18.161Z,29.10
2022-08-17T12:17:55.422Z,29.08
2022-08-17T12:20:24.442Z,27.31
2022-08-17T12:23:04.037Z,26.52
2022-08-17T12:25:34.931Z,26.98
2022-08-17T12:28:06.047Z,25.56
2022-08-17T12:30:34.452Z,25.21
2022-08-17T12:33:00.976Z,26.46
2022-08-17T12:35:33.124Z,26.40
2022-08-17T12:38:00.127Z,27.13
2022-08-17T12:40:28.415Z,26.76
2022-08-17T12:42:57.904Z,27.13
2022-08-17T12:45:29.501Z,27.24
2022-08-17T12:48:04.139Z,27.65
2022-08-17T12:50:32.208Z,28.69
2022-08-17T12:53:02.301Z,28.56
2022-08-17T12:55:32.471Z,27.80
2022-08-17T12:58:01.890Z,28.25
2022-08-17T13:00:33.324Z,28.05
2022-08-17T13:03:07.801Z,28.75
2022-08-17T13:05:35.603Z,28.90
2022-08-17T13:08:04.740Z,30.10
2022-08-17T13:10:36.259Z,30.83
2022-08-17T13:13:05.373Z,30.91
2022-08-17T13:15:31.793Z,31.14
2022-08-17T13:18:04.075Z,31.94
2022-08-17T13:20:30.830Z,33.31
2022-08-17T13:22:58.715Z,34.52
2022-08-17T13:25:26.537Z,35.39
2022-08-17T13:27:53.791Z,35.83
2022-08-17T13:30:23.874Z,35.33
2022-08-17T13:32:50.445Z,35.27
2022-08-17T13:35:40.047Z,35.07
2022-08-17T13:38:26.833Z,35.46
2022-08-17T13:40:53.456Z,35.74
2022-08-17T13:43:46.165Z,36.41
2022-08-17T13:46:17.553Z,36.58
2022-08-17T13:48:44.244Z,36.46
2022-08-17T13:51:16.772Z,36.36
2022-08-17T13:53:43.223Z,37.19
2022-08-17T13:56:38.867Z,36.99
2022-08-17T13:59:02.819Z,36.92
2022-08-17T14:01:31.137Z,36.72
2022-08-17T14:03:59.071Z,37.20
2022-08-17T14:06:53.327Z,37.22
2022-08-17T14:09:15.181Z,36.69
2022-08-17T14:11:42.621Z,37.78
2022-08-17T14:14:09.268Z,37.11
2022-08-17T14:16:36.420Z,37.45
2022-08-17T14:19:02.920Z,37.95
2022-08-17T14:21:29.496Z,38.31
2022-08-17T14:23:55.923Z,38.44
2022-08-17T14:26:23.170Z,38.82
2022-08-17T14:28:56.247Z,39.04
2022-08-17T14:31:23.219Z,39.06
2022-08-17T14:33:49.655Z,38.70
2022-08-17T14:36:16.142Z,39.25
2022-08-17T14:38:43.026Z,39.26
2022-08-17T14:41:09.527Z,39.50
2022-08-17T14:43:35.985Z,39.63
2022-08-17T14:46:02.587Z,39.92
2022-08-17T14:48:29.225Z,39.67
2022-08-17T14:50:56.733Z,39.38
2022-08-17T14:53:23.316Z,39.79
2022-08-17T14:55:50.872Z,39.02
2022-08-17T14:58:18.023Z,37.94
2022-08-17T15:00:44.489Z,38.17
2022-08-17T15:03:11.786Z,38.76
2022-08-17T15:05:38.994Z,38.67
2022-08-17T15:08:06.047Z,38.57
2022-08-17T15:10:32.562Z,38.11
2022-08-17T15:12:59.757Z,38.36
2022-08-17T15:15:26.704Z,37.66
2022-08-17T15:17:53.250Z,38.30
2022-08-17T15:20:22.051Z,38.51
2022-08-17T15:22:55.221Z,38.17
2022-08-17T15:25:22.396Z,38.25
2022-08-17T15:27:49.141Z,37.72
2022-08-17T15:30:15.987Z,37.59
2022-08-17T15:32:51.387Z,37.45
2022-08-17T15:35:26.954Z,37.79
2022-08-17T15:37:55.055Z,37.61
2022-08-17T15:40:21.496Z,37.47
2022-08-17T15:42:47.960Z,37.44
2022-08-17T15:45:14.619Z,37.54
2022-08-17T15:47:42.568Z,37.31
2022-08-17T15:50:09.733Z,36.88
2022-08-17T15:52:40.131Z,36.71
2022-08-17T15:55:08.975Z,36.29
2022-08-17T15:57:36.135Z,36.20
2022-08-17T16:00:03.638Z,36.13
2022-08-17T16:03:46.742Z,34.98
2022-08-17T16:05:21.869Z,35.42
2022-08-17T16:07:50.980Z,34.80
2022-08-17T16:10:19.229Z,35.22
2022-08-17T16:12:46.905Z,34.49
2022-08-17T16:15:13.852Z,35.25
2022-08-17T16:17:41.538Z,35.26
2022-08-17T16:20:09.993Z,34.90
2022-08-17T16:22:48.221Z,34.86
2022-08-17T16:25:17.990Z,34.59
2022-08-17T16:27:45.333Z,33.77
2022-08-17T16:30:17.070Z,34.15
2022-08-17T16:32:44.397Z,33.38
2022-08-17T16:35:11.930Z,34.26
2022-08-17T16:37:40.421Z,34.51
2022-08-17T16:40:12.266Z,32.93
2022-08-17T16:42:39.713Z,33.37
2022-08-17T16:45:06.280Z,33.20
2022-08-17T16:47:32.779Z,33.21
2022-08-17T16:49:59.402Z,32.89
2022-08-17T16:52:32.615Z,32.50
2022-08-17T16:55:00.286Z,32.34
2022-08-17T16:57:27.071Z,33.75
2022-08-17T16:59:53.853Z,32.77
2022-08-17T17:02:27.813Z,31.65
2022-08-17T17:05:13.873Z,32.92
2022-08-17T17:07:58.819Z,32.95
2022-08-17T17:10:35.995Z,32.75
2022-08-17T17:13:04.556Z,31.55
2022-08-17T17:15:45.001Z,32.38
2022-08-17T17:18:12.733Z,32.31
2022-08-17T17:20:45.859Z,32.60
2022-08-17T17:23:32.199Z,32.79
2022-08-17T17:26:07.971Z,32.64
2022-08-17T17:28:42.722Z,32.36
2022-08-17T17:31:11.996Z,32.11
2022-08-17T17:33:43.552Z,32.04
2022-08-17T17:36:20.880Z,32.88
2022-08-17T17:38:53.021Z,33.37
2022-08-17T17:41:26.508Z,33.91
2022-08-17T17:43:57.740Z,32.85
2022-08-17T17:46:32.912Z,33.10
2022-08-17T17:48:59.641Z,32.98
2022-08-17T17:52:05.221Z,32.71
2022-08-17T17:54:32.511Z,32.89
2022-08-17T17:57:07.272Z,33.14
2022-08-17T17:59:59.640Z,33.74
2022-08-17T18:02:53.272Z,33.69
2022-08-17T18:05:25.571Z,34.00
2022-08-17T18:08:11.495Z,34.02
2022-08-17T18:10:44.948Z,34.26
2022-08-17T18:13:21.673Z,34.05
2022-08-17T18:15:53.280Z,34.49
2022-08-17T18:18:40.039Z,35.07
2022-08-17T18:21:14.882Z,35.08
2022-08-17T18:23:50.878Z,35.74
2022-08-17T18:26:33.693Z,35.90
2022-08-17T18:29:01.812Z,36.22
2022-08-17T18:31:28.638Z,36.37
2022-08-17T18:34:36.134Z,37.12
2022-08-17T18:37:06.673Z,37.10
2022-08-17T18:39:33.487Z,37.22
2022-08-17T18:42:00.563Z,37.80
2022-08-17T18:44:31.362Z,39.02
2022-08-17T18:47:14.626Z,38.09
2022-08-17T18:49:45.872Z,38.73
2022-08-17T18:52:15.530Z,39.54
2022-08-17T18:55:02.260Z,39.87
2022-08-17T18:57:34.977Z,40.06
2022-08-17T19:00:09.998Z,40.75
2022-08-17T19:02:49.501Z,40.62
2022-08-17T19:05:27.160Z,40.55
2022-08-17T19:07:53.847Z,40.21
2022-08-17T19:10:28.230Z,40.96
2022-08-17T19:13:12.614Z,41.75
2022-08-17T19:16:14.443Z,41.98
2022-08-17T19:18:39.281Z,42.31
2022-08-17T19:21:29.004Z,42.06
2022-08-17T19:24:19.559Z,42.26
2022-08-17T19:27:06.390Z,42.92
2022-08-17T19:29:55.485Z,42.80
2022-08-17T19:32:24.444Z,43.41
2022-08-17T19:34:51.160Z,44.18
2022-08-17T19:37:36.482Z,43.54
2022-08-17T19:40:02.910Z,43.90
2022-08-17T19:42:49.704Z,44.22
2022-08-17T19:45:34.677Z,44.65
2022-08-17T19:48:21.098Z,44.55
2022-08-17T19:50:56.363Z,44.55
2022-08-17T19:54:01.521Z,44.88
2022-08-17T19:56:31.660Z,45.37
2022-08-17T19:59:02.692Z,45.41
2022-08-17T20:01:36.508Z,46.39
2022-08-17T20:04:23.241Z,45.97
2022-08-17T20:07:01.883Z,45.59
2022-08-17T20:09:38.877Z,47.67
2022-08-17T20:12:14.267Z,46.78
2022-08-17T20:14:55.393Z,46.35
2022-08-17T20:17:24.830Z,47.79
2022-08-17T20:20:07.507Z,47.09
2022-08-17T20:22:53.166Z,46.48
2022-08-17T20:25:30.582Z,48.32
2022-08-17T20:28:06.056Z,48.12
2022-08-17T20:30:37.597Z,48.37
2022-08-17T20:33:06.023Z,48.68
2022-08-17T20:35:34.083Z,47.61
2022-08-17T20:38:12.235Z,49.35
2022-08-17T20:40:54.066Z,49.09
2022-08-17T20:43:43.182Z,49.45
2022-08-17T20:46:14.435Z,50.12
2022-08-17T20:48:42.749Z,50.50
2022-08-17T20:51:15.194Z,51.26
2022-08-17T20:54:01.866Z,51.01
2022-08-17T20:56:43.528Z,50.93
2022-08-17T20:59:25.511Z,51.01
2022-08-17T21:02:18.117Z,51.33
2022-08-17T21:04:52.317Z,50.59
2022-08-17T21:07:29.514Z,51.36
2022-08-17T21:10:09.631Z,50.73
2022-08-17T21:12:41.815Z,51.75
2022-08-17T21:15:19.344Z,51.48
2022-08-17T21:18:08.812Z,51.53
2022-08-17T21:20:55.635Z,52.13
2022-08-17T21:23:28.109Z,52.18
2022-08-17T21:26:00.966Z,51.96
2022-08-17T21:28:36.841Z,52.45
2022-08-17T21:31:29.062Z,52.63
2022-08-17T21:34:17.967Z,52.02
2022-08-17T21:36:45.701Z,52.75
2022-08-17T21:39:13.549Z,53.54
2022-08-17T21:41:53.622Z,54.02
2022-08-17T21:44:27.778Z,54.31
2022-08-17T21:47:11.362Z,54.44
2022-08-17T21:49:38.116Z,53.37
2022-08-17T21:52:05.613Z,54.51
2022-08-17T21:54:35.688Z,56.50
2022-08-17T21:57:04.097Z,54.74
2022-08-17T21:59:32.940Z,55.03
2022-08-17T22:02:00.603Z,54.95
2022-08-17T22:04:27.159Z,55.56
2022-08-17T22:06:57.525Z,55.78
2022-08-17T22:09:29.307Z,56.07
2022-08-17T22:12:04.506Z,56.66
2022-08-17T22:14:52.090Z,56.23
2022-08-17T22:17:23.049Z,55.89
2022-08-17T22:19:57.744Z,55.45
2022-08-17T22:22:56.289Z,57.19
2022-08-17T22:25:23.240Z,56.52
2022-08-17T22:27:49.829Z,55.78
2022-08-17T22:30:18.949Z,57.51
2022-08-17T22:32:46.843Z,56.48
2022-08-17T22:35:16.044Z,57.15
2022-08-17T22:37:42.499Z,56.93
2022-08-17T22:40:09.138Z,57.31
2022-08-17T22:42:44.252Z,56.94
2022-08-17T22:45:10.714Z,57.46
2022-08-17T22:47:42.976Z,57.66
2022-08-17T22:50:14.960Z,58.09
2022-08-17T22:53:03.443Z,58.13
2022-08-17T22:55:49.718Z,57.80
2022-08-17T22:58:37.124Z,58.38
2022-08-17T23:01:36.125Z,59.99
2022-08-17T23:04:07.773Z,59.34
2022-08-17T23:06:35.778Z,59.34
2022-08-17T23:09:04.229Z,60.57
2022-08-17T23:11:36.875Z,59.80
2022-08-17T23:14:15.936Z,57.41
2022-08-17T23:16:42.639Z,59.67
2022-08-17T23:19:14.959Z,60.16
2022-08-17T23:21:41.630Z,60.08
2022-08-17T23:24:09.079Z,60.30
2022-08-17T23:26:38.041Z,60.30
2022-08-17T23:29:08.918Z,60.87
2022-08-17T23:31:36.137Z,59.50
2022-08-17T23:34:09.027Z,60.83
2022-08-17T23:36:35.947Z,61.20
2022-08-17T23:39:02.373Z,61.13
2022-08-17T23:41:31.833Z,61.32
2022-08-17T23:43:58.943Z,60.53
2022-08-17T23:46:25.413Z,61.77
2022-08-17T23:48:54.742Z,61.01
2022-08-17T23:51:23.510Z,60.99
2022-08-17T23:53:52.831Z,60.53
2022-08-17T23:56:25.952Z,61.63
2022-08-17T23:58:54.921Z,61.40
